Time,TemperatureF,DewpointF,PressureIn,WindDirection,WindDirectionDegrees,WindSpeedMPH,WindSpeedGustMPH,Humidity,HourlyPrecipIn,Conditions,Clouds,dailyrainin,SoftwareType,DateUTC
2013-04-20 00:00:00,58.1,53.3,29.87,SW,214,2.0,7.0,84,0.00,RA,,0.00,WeatherDisplay:10.37,2013-04-20 04:00:00,
2013-04-20 00:30:00,57.2,52.4,29.89,WNW,283,6.0,6.0,84,0.00,OVC,,0.00,WeatherDisplay:10.37,2013-04-20 04:30:00,
2013-04-20 01:00:00,55.8,49.3,29.90,WNW,286,3.0,8.0,79,0.00,OVC,,0.00,WeatherDisplay:10.37,2013-04-20 05:00:00,
2013-04-20 01:30:00,54.3,46.6,29.91,WNW,283,3.0,7.0,75,0.00,SCT,,0.00,WeatherDisplay:10.37,2013-04-20 05:30:00,
2013-04-20 02:00:00,53.1,45.0,29.92,WNW,295,5.0,7.0,74,0.00,SCT,,0.00,WeatherDisplay:10.37,2013-04-20 06:00:00,
2013-04-20 02:30:00,51.8,41.5,29.93,WNW,293,6.0,10.0,68,0.00,CLR,,0.00,WeatherDisplay:10.37,2013-04-20 06:30:00,
2013-04-20 03:00:00,50.5,40.4,29.95,WNW,298,3.0,8.0,68,0.00,CLR,,0.00,WeatherDisplay:10.37,2013-04-20 07:00:00,
2013-04-20 03:30:00,49.8,39.7,29.96,WNW,288,1.0,6.0,68,0.00,CLR,,0.00,WeatherDisplay:10.37,2013-04-20 07:30:00,
2013-04-20 04:00:00,49.3,39.1,29.97,WNW,291,3.0,9.0,68,0.00,CLR,,0.00,WeatherDisplay:10.37,2013-04-20 08:00:00,
2013-04-20 06:30:00,45.3,33.9,30.04,WNW,292,2.0,7.0,64,0.00,CLR,,0.00,WeatherDisplay:10.37,2013-04-20 10:30:00,
2013-04-20 07:00:00,44.5,33.1,30.06,WNW,295,5.0,7.0,64,0.00,CLR,,0.00,WeatherDisplay:10.37,2013-04-20 11:00:00,
2013-04-20 07:30:00,44.0,33.3,30.09,WNW,285,2.0,8.0,66,0.00,CLR,,0.00,WeatherDisplay:10.37,2013-04-20 11:30:00,
2013-04-20 08:00:00,43.9,33.6,30.11,WNW,293,1.0,5.0,67,0.00,CLR,,0.00,WeatherDisplay:10.37,2013-04-20 12:00:00,
2013-04-20 08:30:00,45.0,31.9,30.11,WNW,303,2.0,7.0,60,0.00,CLR,,0.00,WeatherDisplay:10.37,2013-04-20 12:30:00,
2013-04-20 09:00:00,45.7,31.3,30.13,WNW,294,3.0,8.0,57,0.00,CLR,,0.00,WeatherDisplay:10.37,2013-04-20 13:00:00,
2013-04-20 09:30:00,47.4,31.6,30.13,WNW,291,7.0,7.0,54,0.00,CLR,,0.00,WeatherDisplay:10.37,2013-04-20 13:30:00,
2013-04-20 10:00:00,48.9,32.5,30.14,WNW,292,3.0,9.0,53,0.00,CLR,,0.00,WeatherDisplay:10.37,2013-04-20 14:00:00,
2013-04-20 10:30:00,50.0,32.6,30.14,NW,315,3.0,3.0,51,0.00,CLR,,0.00,WeatherDisplay:10.37,2013-04-20 14:30:00,
2013-04-20 11:00:00,52.2,34.1,30.15,WNW,292,2.0,3.0,50,0.00,CLR,,0.00,WeatherDisplay:10.37,2013-04-20 15:00:00,
2013-04-20 11:30:00,54.0,33.6,30.16,SW,225,5.0,5.0,46,0.00,CLR,,0.00,WeatherDisplay:10.37,2013-04-20 15:30:00,
2013-04-20 12:00:00,55.8,36.4,30.16,NW,315,7.0,7.0,48,0.00,CLR,,0.00,WeatherDisplay:10.37,2013-04-20 16:00:00,
2013-04-20 12:30:00,56.5,35.4,30.16,NW,315,2.0,7.0,45,0.00,CLR,,0.00,WeatherDisplay:10.37,2013-04-20 16:30:00,
2013-04-20 13:00:00,58.1,36.3,30.15,WNW,292,5.0,5.0,44,0.00,CLR,,0.00,WeatherDisplay:10.37,2013-04-20 17:00:00,
2013-04-20 13:30:00,59.5,38.2,30.15,SW,225,2.0,5.0,45,0.00,CLR,,0.00,WeatherDisplay:10.37,2013-04-20 17:30:00,
2013-04-20 14:00:00,60.8,36.9,30.14,West,270,3.0,5.0,41,0.00,CLR,,0.00,WeatherDisplay:10.37,2013-04-20 18:00:00,
2013-04-20 14:30:00,61.3,36.8,30.14,ENE,68,2.0,3.0,40,0.00,CLR,,0.00,WeatherDisplay:10.37,2013-04-20 18:30:00,
2013-04-20 15:00:00,61.2,36.6,30.14,West,270,2.0,3.0,40,0.00,CLR,,0.00,WeatherDisplay:10.37,2013-04-20 19:00:00,
2013-04-20 15:30:00,62.1,37.4,30.13,SW,225,2.0,2.0,40,0.00,CLR,,0.00,WeatherDisplay:10.37,2013-04-20 19:30:00,
2013-04-20 16:00:00,62.1,38.7,30.13,WNW,292,3.0,4.0,42,0.00,CLR,,0.00,WeatherDisplay:10.37,2013-04-20 20:00:00,
2013-04-20 16:30:00,61.9,38.5,30.12,NW,315,1.0,3.0,42,0.00,CLR,,0.00,WeatherDisplay:10.37,2013-04-20 20:30:00,
2013-04-20 17:00:00,61.5,37.0,30.12,NW,315,5.0,5.0,40,0.00,CLR,,0.00,WeatherDisplay:10.37,2013-04-20 21:00:00,
2013-04-20 17:30:00,61.0,36.5,30.13,WNW,292,1.0,5.0,40,0.00,CLR,,0.00,WeatherDisplay:10.37,2013-04-20 21:30:00,
2013-04-20 18:00:00,60.6,36.8,30.13,SSW,202,0.0,1.0,41,0.00,CLR,,0.00,WeatherDisplay:10.37,2013-04-20 22:00:00,
2013-04-20 18:30:00,60.4,36.0,30.14,NW,315,0.0,0.0,40,0.00,CLR,,0.00,WeatherDisplay:10.37,2013-04-20 22:30:00,
2013-04-20 19:00:00,60.1,36.3,30.15,SE,135,1.0,2.0,41,0.00,CLR,,0.00,WeatherDisplay:10.37,2013-04-20 23:00:00,
2013-04-20 19:30:00,59.5,35.8,30.15,West,270,0.0,1.0,41,0.00,CLR,,0.00,WeatherDisplay:10.37,2013-04-20 23:30:00,
2013-04-20 20:00:00,59.0,37.1,30.16,WNW,292,0.0,0.0,44,0.00,CLR,,0.00,WeatherDisplay:10.37,2013-04-21 00:00:00,
2013-04-20 20:30:00,57.7,39.7,30.18,WNW,292,0.0,0.0,51,0.00,CLR,,0.00,WeatherDisplay:10.37,2013-04-21 00:30:00,
2013-04-20 21:00:00,55.8,39.4,30.20,WNW,292,0.0,0.0,54,0.00,CLR,,0.00,WeatherDisplay:10.37,2013-04-21 01:00:00,
2013-04-20 21:30:00,54.3,39.8,30.22,WNW,292,0.0,0.0,58,0.00,CLR,,0.00,WeatherDisplay:10.37,2013-04-21 01:30:00,
2013-04-20 22:00:00,52.7,39.2,30.24,WNW,292,0.0,0.0,60,0.00,CLR,,0.00,WeatherDisplay:10.37,2013-04-21 02:00:00,
2013-04-20 22:30:00,51.4,38.8,30.24,NW,315,0.0,0.0,62,0.00,CLR,,0.00,WeatherDisplay:10.37,2013-04-21 02:30:00,
2013-04-20 23:00:00,50.4,37.8,30.25,North,0,0.0,0.0,62,0.00,CLR,,0.00,WeatherDisplay:10.37,2013-04-21 03:00:00,
2013-04-20 23:30:00,50.0,37.5,30.26,NE,45,0.0,0.0,62,0.00,CLR,,0.00,WeatherDisplay:10.37,2013-04-21 03:30:00,